Veuillez saisir l'adresse e-mail associée à votre compte d'utilisateur. Votre identifiant vous sera envoyé à cette adresse.

METAR TAF

[Source: ADDS]
METAR
LFCR 271700Z AUTO 13006KT CAVOK 14/06 Q1021 NOSIG =
LFCR 271700Z 2718/2818 14008KT CAVOK BECMG 2808/2810 13015G25KT LFBA 271700Z AUTO 20002KT CAVOK 14/09 Q1020 NOSIG =
LFBA 271400Z 2715/2724 12006KT CAVOK PROB30 2721/2724 MIFG LFSL 271700Z AUTO 00000KT CAVOK 13/08 Q1021 NOSIG =
LFSL 271400Z 2715/2724 16004KT CAVOK LFLW 271700Z AUTO 13003KT CAVOK 12/07 Q1021 NOSIG =
LFLW 271400Z 2715/2724 14006KT CAVOK
TAF
LFCR 271700Z 2718/2818 14008KT CAVOK BECMG 2808/2810 13015G25KT =
LFBA 271400Z 2715/2724 12006KT CAVOK PROB30 2721/2724 MIFG =
LFSL 271400Z 2715/2724 16004KT CAVOK =
LFLW 271400Z 2715/2724 14006KT CAVOK =
SR / SS: 06:25 / 16:50 UTC (LFCC 2021-10-27)